createdAt,value
2022-11-27T00:01:10.810Z,166.90
2022-11-27T00:03:40.646Z,165.40
2022-11-27T00:06:12.672Z,165.40
2022-11-27T00:08:40.437Z,165.83
2022-11-27T00:11:09.650Z,164.77
2022-11-27T00:13:38.346Z,164.90
2022-11-27T00:16:07.412Z,165.70
2022-11-27T00:18:35.797Z,165.07
2022-11-27T00:21:07.123Z,165.37
2022-11-27T00:23:36.169Z,165.40
2022-11-27T00:26:05.341Z,165.77
2022-11-27T00:28:34.052Z,164.90
2022-11-27T00:31:02.741Z,165.17
2022-11-27T00:33:30.598Z,165.40
2022-11-27T00:36:02.322Z,166.47
2022-11-27T00:38:34.672Z,165.70
2022-11-27T00:41:10.315Z,165.93
2022-11-27T00:43:44.428Z,165.37
2022-11-27T00:46:13.389Z,165.63
2022-11-27T00:48:41.452Z,165.60
2022-11-27T00:51:12.321Z,164.67
2022-11-27T00:53:41.729Z,164.30
2022-11-27T00:56:09.997Z,165.47
2022-11-27T00:58:37.827Z,163.73
2022-11-27T01:01:07.759Z,164.57
2022-11-27T01:03:36.389Z,165.23
2022-11-27T01:06:05.438Z,164.27
2022-11-27T01:08:33.583Z,164.50
2022-11-27T01:11:02.999Z,164.67
2022-11-27T01:13:32.880Z,164.07
2022-11-27T01:16:01.636Z,164.17
2022-11-27T01:18:29.993Z,164.53
2022-11-27T01:20:58.288Z,164.73
2022-11-27T01:23:26.170Z,164.87
2022-11-27T01:25:54.170Z,164.03
2022-11-27T01:28:24.637Z,163.70
2022-11-27T01:30:52.852Z,164.70
2022-11-27T01:33:21.111Z,164.63
2022-11-27T01:35:56.320Z,164.63
2022-11-27T01:38:25.023Z,164.13
2022-11-27T01:40:58.027Z,163.97
2022-11-27T01:43:41.964Z,164.17
2022-11-27T01:46:18.898Z,164.13
2022-11-27T01:48:47.823Z,163.80
2022-11-27T01:51:15.672Z,164.50
2022-11-27T01:53:43.652Z,164.07
2022-11-27T01:56:11.989Z,164.50
2022-11-27T01:58:41.500Z,164.37
2022-11-27T02:01:09.318Z,164.80
2022-11-27T02:03:37.377Z,164.17
2022-11-27T02:06:05.501Z,165.23
2022-11-27T02:08:33.504Z,164.63
2022-11-27T02:11:06.335Z,164.90
2022-11-27T02:13:39.096Z,164.20
2022-11-27T02:16:18.254Z,164.57
2022-11-27T02:18:53.745Z,163.63
2022-11-27T02:21:27.129Z,164.57
2022-11-27T02:24:17.718Z,163.63
2022-11-27T02:27:21.341Z,163.83
2022-11-27T02:29:55.293Z,164.10
2022-11-27T02:32:30.179Z,164.07
2022-11-27T02:35:04.063Z,164.17
2022-11-27T02:37:36.277Z,163.63
2022-11-27T02:40:11.107Z,163.90
2022-11-27T02:42:43.165Z,164.30
2022-11-27T02:45:14.811Z,164.60
2022-11-27T02:47:45.613Z,163.23
2022-11-27T02:50:19.210Z,163.57
2022-11-27T02:52:49.997Z,164.50
2022-11-27T02:55:23.074Z,163.87
2022-11-27T02:57:55.007Z,164.33
2022-11-27T03:00:24.585Z,165.53
2022-11-27T03:02:56.797Z,163.53
2022-11-27T03:05:27.686Z,164.30
2022-11-27T03:08:00.454Z,164.40
2022-11-27T03:10:32.521Z,164.23
2022-11-27T03:13:01.317Z,164.27
2022-11-27T03:15:52.347Z,164.37
2022-11-27T03:18:25.253Z,163.77
2022-11-27T03:21:04.516Z,163.30
2022-11-27T03:23:32.329Z,163.73
2022-11-27T03:26:00.089Z,163.90
2022-11-27T03:28:29.562Z,163.33
2022-11-27T03:30:59.098Z,164.03
2022-11-27T03:33:27.081Z,163.10
2022-11-27T03:35:54.985Z,163.80
2022-11-27T03:38:22.817Z,163.80
2022-11-27T03:40:58.534Z,163.83
2022-11-27T03:43:30.673Z,164.00
2022-11-27T03:46:07.369Z,163.73
2022-11-27T03:48:39.143Z,163.90
2022-11-27T03:51:15.508Z,164.03
2022-11-27T03:53:52.649Z,164.53
2022-11-27T03:56:31.048Z,164.17
2022-11-27T03:59:03.391Z,163.13
2022-11-27T04:01:32.963Z,163.67
2022-11-27T04:04:01.089Z,164.30
2022-11-27T04:06:28.965Z,164.27
2022-11-27T04:08:56.754Z,163.67
2022-11-27T04:11:24.530Z,162.97
2022-11-27T04:13:52.728Z,163.10
2022-11-27T04:16:20.846Z,163.50
2022-11-27T04:18:50.114Z,163.10
2022-11-27T04:21:18.136Z,164.17
2022-11-27T04:23:46.153Z,164.43
2022-11-27T04:26:13.976Z,163.70
2022-11-27T04:28:41.839Z,163.40
2022-11-27T04:31:09.668Z,162.97
2022-11-27T04:33:37.513Z,163.10
2022-11-27T04:36:07.405Z,163.90
2022-11-27T04:38:35.167Z,163.80
2022-11-27T04:41:02.946Z,162.90
2022-11-27T04:43:30.753Z,163.73
2022-11-27T04:45:58.510Z,164.23
2022-11-27T04:48:26.289Z,163.80
2022-11-27T04:50:55.600Z,161.67
2022-11-27T04:53:24.775Z,161.40
2022-11-27T04:55:52.658Z,162.77
2022-11-27T04:58:20.433Z,160.80
2022-11-27T05:00:48.310Z,161.40
2022-11-27T05:03:17.369Z,162.07
2022-11-27T05:05:45.183Z,161.17
2022-11-27T05:08:13.020Z,161.07
2022-11-27T05:10:42.164Z,162.37
2022-11-27T05:13:09.962Z,161.60
2022-11-27T05:15:37.726Z,161.50
2022-11-27T05:18:05.678Z,161.57
2022-11-27T05:20:33.494Z,161.43
2022-11-27T05:23:01.271Z,161.40
2022-11-27T05:25:29.041Z,161.37
2022-11-27T05:27:58.114Z,161.43
2022-11-27T05:30:25.861Z,161.33
2022-11-27T05:32:53.906Z,162.57
2022-11-27T05:35:21.717Z,163.50
2022-11-27T05:37:49.504Z,162.30
2022-11-27T05:40:17.416Z,162.37
2022-11-27T05:42:45.198Z,162.47
2022-11-27T05:45:14.333Z,162.80
2022-11-27T05:47:42.117Z,162.67
2022-11-27T05:50:10.335Z,163.37
2022-11-27T05:52:38.149Z,162.53
2022-11-27T05:55:06.839Z,162.47
2022-11-27T05:57:34.650Z,163.40
2022-11-27T06:00:02.576Z,162.53
2022-11-27T06:02:34.255Z,162.17
2022-11-27T06:05:02.062Z,162.83
2022-11-27T06:07:29.844Z,162.07
2022-11-27T06:09:57.612Z,162.13
2022-11-27T06:12:25.438Z,162.23
2022-11-27T06:14:53.232Z,162.63
2022-11-27T06:17:21.015Z,163.30
2022-11-27T06:19:51.409Z,163.27
2022-11-27T06:22:19.222Z,162.20
2022-11-27T06:24:47.013Z,162.53
2022-11-27T06:27:14.822Z,162.57
2022-11-27T06:29:42.762Z,163.50
2022-11-27T06:32:10.608Z,162.20
2022-11-27T06:34:38.702Z,163.00
2022-11-27T06:37:12.993Z,162.97
2022-11-27T06:39:41.189Z,162.77
2022-11-27T06:42:09.028Z,163.70
2022-11-27T06:44:36.815Z,163.57
2022-11-27T06:47:04.634Z,162.90
2022-11-27T06:49:32.475Z,162.63
2022-11-27T06:52:01.170Z,163.43
2022-11-27T06:54:30.350Z,162.60
2022-11-27T06:56:58.358Z,163.80
2022-11-27T06:59:26.129Z,163.83
2022-11-27T07:01:54.051Z,163.07
2022-11-27T07:04:21.855Z,162.87
2022-11-27T07:06:49.622Z,163.37
2022-11-27T07:09:17.725Z,164.03
2022-11-27T07:11:46.924Z,163.60
2022-11-27T07:14:14.698Z,163.83
2022-11-27T07:16:42.607Z,164.67
2022-11-27T07:19:11.760Z,163.17
2022-11-27T07:21:40.034Z,162.70
2022-11-27T07:24:08.808Z,163.60
2022-11-27T07:26:36.558Z,163.00
2022-11-27T07:29:05.745Z,163.40
2022-11-27T07:31:33.541Z,163.47
2022-11-27T07:34:01.385Z,163.30
2022-11-27T07:36:31.246Z,163.57
2022-11-27T07:38:59.352Z,163.60
2022-11-27T07:41:33.448Z,163.27
2022-11-27T07:44:02.119Z,163.10
2022-11-27T07:46:31.370Z,163.73
2022-11-27T07:49:00.358Z,163.97
2022-11-27T07:51:28.626Z,163.87
2022-11-27T07:53:56.457Z,163.30
2022-11-27T07:56:24.307Z,163.73
2022-11-27T07:58:52.085Z,164.33
2022-11-27T08:01:21.469Z,162.97
2022-11-27T08:03:50.782Z,163.47
2022-11-27T08:06:21.036Z,163.53
2022-11-27T08:08:48.877Z,163.20
2022-11-27T08:11:18.421Z,163.17
2022-11-27T08:13:46.230Z,163.37
2022-11-27T08:16:14.147Z,163.57
2022-11-27T08:18:42.103Z,162.87
2022-11-27T08:21:11.280Z,163.50
2022-11-27T08:23:39.245Z,163.60
2022-11-27T08:26:08.389Z,162.93
2022-11-27T08:28:36.894Z,163.00
2022-11-27T08:31:06.821Z,163.57
2022-11-27T08:33:35.361Z,163.17
2022-11-27T08:36:03.732Z,163.47
2022-11-27T08:38:33.027Z,163.57
2022-11-27T08:41:02.906Z,163.60
2022-11-27T08:43:31.656Z,163.17
2022-11-27T08:45:59.901Z,163.47
2022-11-27T08:48:28.496Z,163.47
2022-11-27T08:50:56.317Z,163.87
2022-11-27T08:53:24.116Z,164.43
2022-11-27T08:55:53.206Z,163.63
2022-11-27T08:58:21.027Z,163.87
2022-11-27T09:00:48.993Z,163.97
2022-11-27T09:03:16.779Z,164.77
2022-11-27T09:05:47.427Z,163.73
2022-11-27T09:08:20.095Z,164.87
2022-11-27T09:10:48.137Z,164.00
2022-11-27T09:13:17.337Z,164.80
2022-11-27T09:15:45.125Z,164.20
2022-11-27T09:18:12.955Z,164.83
2022-11-27T09:20:40.771Z,163.80
2022-11-27T09:23:14.153Z,165.43
2022-11-27T09:25:42.215Z,164.57
2022-11-27T09:28:09.957Z,163.67
2022-11-27T09:30:39.876Z,164.40
2022-11-27T09:33:07.725Z,164.53
2022-11-27T09:35:38.197Z,164.00
2022-11-27T09:38:06.273Z,164.90
2022-11-27T09:40:35.433Z,165.00
2022-11-27T09:43:09.751Z,164.40
2022-11-27T09:45:43.978Z,163.53
2022-11-27T09:48:16.157Z,164.30
2022-11-27T09:50:50.350Z,163.90
2022-11-27T09:53:27.927Z,163.83
2022-11-27T09:55:59.657Z,163.70
2022-11-27T09:58:39.396Z,163.77
2022-11-27T10:01:19.526Z,164.23
2022-11-27T10:03:47.818Z,164.53
2022-11-27T10:06:27.893Z,164.63
2022-11-27T10:09:12.538Z,163.60
2022-11-27T10:11:49.428Z,164.30
2022-11-27T10:14:31.137Z,164.33
2022-11-27T10:17:05.190Z,164.07
2022-11-27T10:19:40.005Z,163.97
2022-11-27T10:22:19.708Z,164.97
2022-11-27T10:25:03.111Z,164.23
2022-11-27T10:27:39.178Z,164.27
2022-11-27T10:30:15.267Z,164.23
2022-11-27T10:32:55.775Z,163.63
2022-11-27T10:35:26.957Z,163.97
2022-11-27T10:38:01.001Z,163.47
2022-11-27T10:40:38.475Z,164.60
2022-11-27T10:43:11.671Z,164.43
2022-11-27T10:45:45.045Z,164.40
2022-11-27T10:48:15.372Z,163.60
2022-11-27T10:50:44.053Z,164.10
2022-11-27T10:53:15.877Z,163.97
2022-11-27T10:56:05.482Z,164.17
2022-11-27T10:58:37.506Z,164.47
2022-11-27T11:01:07.731Z,163.37
2022-11-27T11:03:37.461Z,165.23
2022-11-27T11:06:23.810Z,163.90
2022-11-27T11:09:03.460Z,164.13
2022-11-27T11:11:31.290Z,164.63
2022-11-27T11:13:59.145Z,164.37
2022-11-27T11:16:34.918Z,163.60
2022-11-27T11:19:06.110Z,164.67
2022-11-27T11:21:35.969Z,164.37
2022-11-27T11:24:06.315Z,164.33
2022-11-27T11:26:38.672Z,165.10
2022-11-27T11:29:26.024Z,165.63
2022-11-27T11:36:13.701Z,164.20
2022-11-27T11:38:45.282Z,165.27
2022-11-27T11:41:13.658Z,165.47
2022-11-27T11:43:41.611Z,165.83
2022-11-27T11:46:19.255Z,166.33
2022-11-27T11:48:59.270Z,165.07
2022-11-27T11:51:58.497Z,165.10
2022-11-27T11:54:49.770Z,165.13
2022-11-27T11:57:47.215Z,164.23
2022-11-27T12:00:17.978Z,164.00
2022-11-27T12:03:01.246Z,163.90
2022-11-27T12:05:37.677Z,163.77
2022-11-27T12:08:29.647Z,163.30
2022-11-27T12:11:07.803Z,163.07
2022-11-27T12:13:50.391Z,163.47
2022-11-27T12:16:28.171Z,162.67
2022-11-27T12:19:19.261Z,163.17
2022-11-27T12:21:57.488Z,163.50
2022-11-27T12:24:39.832Z,163.47
2022-11-27T12:27:23.405Z,162.87
2022-11-27T12:30:13.108Z,163.13
2022-11-27T12:33:12.240Z,162.97
2022-11-27T12:35:45.512Z,162.03
2022-11-27T12:38:30.979Z,163.53
2022-11-27T12:41:20.426Z,163.27
2022-11-27T12:43:51.918Z,162.60
2022-11-27T12:46:24.228Z,163.33
2022-11-27T12:48:56.962Z,163.70
2022-11-27T12:51:28.750Z,163.67
2022-11-27T12:54:02.107Z,163.27
2022-11-27T12:56:34.593Z,163.77
2022-11-27T12:59:09.734Z,162.93
2022-11-27T13:01:42.151Z,163.73
2022-11-27T13:04:19.168Z,163.47
2022-11-27T13:06:53.917Z,163.50
2022-11-27T13:09:28.654Z,162.80
2022-11-27T13:11:58.550Z,162.97
2022-11-27T13:14:28.313Z,163.13
2022-11-27T13:16:59.427Z,163.70
2022-11-27T13:19:33.042Z,163.70
2022-11-27T13:22:03.541Z,162.43
2022-11-27T13:24:31.686Z,163.40
2022-11-27T13:27:07.255Z,162.13
2022-11-27T13:29:40.875Z,162.67
2022-11-27T13:32:10.770Z,162.57
2022-11-27T13:34:47.191Z,162.23
2022-11-27T13:37:27.901Z,163.53
2022-11-27T13:40:01.478Z,162.73
2022-11-27T13:42:31.490Z,163.10
2022-11-27T13:45:01.677Z,162.57
2022-11-27T13:47:36.331Z,163.00
2022-11-27T13:50:07.046Z,162.77
2022-11-27T13:52:35.284Z,162.63
2022-11-27T13:55:05.437Z,162.77
2022-11-27T13:57:36.060Z,163.40
2022-11-27T14:00:07.902Z,163.23
2022-11-27T14:02:44.711Z,161.80
2022-11-27T14:05:13.450Z,162.07
2022-11-27T14:07:45.077Z,162.50
2022-11-27T14:10:16.573Z,161.97
2022-11-27T14:12:54.404Z,161.87
2022-11-27T14:15:24.373Z,161.93
2022-11-27T14:17:55.138Z,161.97
2022-11-27T14:20:29.595Z,162.43
2022-11-27T14:23:14.359Z,162.10
2022-11-27T14:25:42.498Z,162.00
2022-11-27T14:28:17.769Z,161.97
2022-11-27T14:30:49.514Z,161.63
2022-11-27T14:33:20.193Z,162.63
2022-11-27T14:35:51.860Z,161.70
2022-11-27T14:38:20.325Z,162.17
2022-11-27T14:40:48.902Z,161.87
2022-11-27T14:43:20.402Z,162.10
2022-11-27T14:45:51.918Z,162.27
2022-11-27T14:48:25.367Z,162.07
2022-11-27T14:50:55.636Z,162.23
2022-11-27T14:53:25.746Z,162.37
2022-11-27T14:55:56.291Z,162.27
2022-11-27T14:58:28.426Z,162.27
2022-11-27T15:00:59.943Z,162.90
2022-11-27T15:03:28.516Z,163.87
2022-11-27T15:05:59.314Z,163.27
2022-11-27T15:08:28.014Z,163.63
2022-11-27T15:10:58.407Z,162.27
2022-11-27T15:13:30.021Z,164.67
2022-11-27T15:16:02.802Z,164.37
2022-11-27T15:18:32.227Z,164.80
2022-11-27T15:21:00.604Z,162.60
2022-11-27T15:23:31.009Z,163.47
2022-11-27T15:26:15.193Z,164.43
2022-11-27T15:28:52.352Z,163.20
2022-11-27T15:31:27.241Z,163.97
2022-11-27T15:34:04.291Z,162.90
2022-11-27T15:36:42.874Z,164.50
2022-11-27T15:39:25.762Z,164.10
2022-11-27T15:41:56.273Z,164.77
2022-11-27T15:44:26.497Z,163.17
2022-11-27T15:46:56.121Z,164.23
2022-11-27T15:49:24.263Z,163.03
2022-11-27T15:51:52.872Z,163.07
2022-11-27T15:54:20.651Z,163.67
2022-11-27T15:56:48.445Z,162.90
2022-11-27T15:59:16.620Z,161.80
2022-11-27T16:01:45.842Z,163.50
2022-11-27T16:04:13.706Z,163.30
2022-11-27T16:06:41.454Z,163.40
2022-11-27T16:09:09.303Z,163.00
2022-11-27T16:11:37.137Z,163.30
2022-11-27T16:14:05.252Z,163.53
2022-11-27T16:16:33.438Z,162.80
2022-11-27T16:19:04.697Z,162.77
2022-11-27T16:21:33.474Z,162.03
2022-11-27T16:24:03.480Z,163.17
2022-11-27T16:26:32.319Z,163.50
2022-11-27T16:29:00.106Z,162.97
2022-11-27T16:31:28.182Z,164.33
2022-11-27T16:33:56.016Z,164.57
2022-11-27T16:36:27.147Z,165.77
2022-11-27T16:38:55.894Z,164.80
2022-11-27T16:41:25.953Z,164.03
2022-11-27T16:43:56.660Z,164.83
2022-11-27T16:46:27.714Z,164.30
2022-11-27T16:48:56.799Z,164.90
2022-11-27T16:51:29.097Z,164.50
2022-11-27T16:53:58.886Z,164.03
2022-11-27T16:56:29.005Z,163.43
2022-11-27T16:59:02.691Z,162.67
2022-11-27T17:01:35.685Z,163.10
2022-11-27T17:04:04.605Z,163.77
2022-11-27T17:06:35.248Z,164.00
2022-11-27T17:09:06.082Z,164.03
2022-11-27T17:11:35.678Z,163.77
2022-11-27T17:14:06.794Z,164.57
2022-11-27T17:16:36.067Z,163.47
2022-11-27T17:19:04.998Z,165.20
2022-11-27T17:21:36.128Z,164.70
2022-11-27T17:24:11.638Z,165.10
2022-11-27T17:26:44.669Z,165.13
2022-11-27T17:29:13.657Z,165.23
2022-11-27T17:31:41.842Z,165.23
2022-11-27T17:34:13.036Z,166.53
2022-11-27T17:36:43.954Z,165.10
2022-11-27T17:39:14.116Z,163.73
2022-11-27T17:41:44.425Z,163.70
2022-11-27T17:44:13.067Z,163.50
2022-11-27T17:46:40.899Z,163.27
2022-11-27T17:49:09.428Z,162.43
2022-11-27T17:51:37.524Z,162.83
2022-11-27T17:54:06.797Z,163.63
2022-11-27T17:56:35.929Z,162.27
2022-11-27T17:59:04.062Z,163.87
2022-11-27T18:01:34.464Z,163.07
2022-11-27T18:04:04.079Z,162.50
2022-11-27T18:06:32.819Z,163.53
2022-11-27T18:09:00.825Z,162.73
2022-11-27T18:11:33.583Z,163.33
2022-11-27T18:14:02.594Z,162.93
2022-11-27T18:16:32.556Z,162.73
2022-11-27T18:19:02.933Z,162.47
2022-11-27T18:21:31.034Z,163.37
2022-11-27T18:29:36.048Z,163.83
2022-11-27T18:32:03.904Z,163.77
2022-11-27T18:34:31.796Z,163.57
2022-11-27T18:37:00.688Z,164.73
2022-11-27T18:39:28.994Z,163.97
2022-11-27T18:41:58.188Z,163.73
2022-11-27T18:44:26.694Z,164.50
2022-11-27T18:46:54.719Z,163.13
2022-11-27T18:49:23.076Z,163.07
2022-11-27T18:51:52.121Z,163.30
2022-11-27T18:54:20.262Z,164.07
2022-11-27T18:56:48.371Z,164.17
2022-11-27T18:59:17.585Z,164.70
2022-11-27T19:01:46.704Z,164.50
2022-11-27T19:04:14.937Z,164.43
2022-11-27T19:06:45.798Z,164.13
2022-11-27T19:09:14.772Z,163.67
2022-11-27T19:11:44.255Z,164.10
2022-11-27T19:14:12.458Z,163.83
2022-11-27T19:16:45.930Z,164.57
2022-11-27T19:19:52.817Z,164.20
2022-11-27T19:22:04.016Z,164.13
2022-11-27T19:24:32.747Z,164.10
2022-11-27T19:27:01.333Z,164.10
2022-11-27T19:29:29.157Z,163.50
2022-11-27T19:32:00.902Z,163.73
2022-11-27T19:34:28.842Z,164.00
2022-11-27T19:36:58.008Z,164.23
2022-11-27T19:39:26.830Z,164.23
2022-11-27T19:41:54.674Z,163.93
2022-11-27T19:44:22.511Z,163.80
2022-11-27T19:46:50.321Z,163.73
2022-11-27T19:49:21.267Z,164.23
2022-11-27T19:51:49.660Z,164.03
2022-11-27T19:54:20.445Z,164.33
2022-11-27T19:56:48.287Z,164.30
2022-11-27T19:59:16.119Z,163.67
2022-11-27T20:01:44.004Z,163.20
2022-11-27T20:04:12.386Z,162.60
2022-11-27T20:06:41.924Z,162.50
2022-11-27T20:09:10.018Z,163.23
2022-11-27T20:11:38.011Z,163.33
2022-11-27T20:14:07.020Z,162.77
2022-11-27T20:16:35.791Z,165.00
2022-11-27T20:19:07.449Z,164.73
2022-11-27T20:21:36.453Z,163.50
2022-11-27T20:24:06.218Z,164.73
2022-11-27T20:26:37.159Z,163.73
2022-11-27T20:29:08.706Z,164.93
2022-11-27T20:31:38.321Z,164.37
2022-11-27T20:34:08.014Z,164.57
2022-11-27T20:36:40.414Z,164.30
2022-11-27T20:39:16.266Z,164.37
2022-11-27T20:41:47.338Z,165.07
2022-11-27T20:44:16.414Z,164.13
2022-11-27T20:46:45.092Z,164.90
2022-11-27T20:49:14.129Z,164.50
2022-11-27T20:51:42.429Z,163.77
2022-11-27T20:54:12.145Z,164.20
2022-11-27T20:56:40.807Z,163.47
2022-11-27T20:59:08.771Z,165.17
2022-11-27T21:01:37.996Z,164.33
2022-11-27T21:04:09.501Z,164.23
2022-11-27T21:06:43.802Z,163.30
2022-11-27T21:09:14.202Z,164.07
2022-11-27T21:11:43.199Z,164.53
2022-11-27T21:14:13.419Z,164.37
2022-11-27T21:16:44.779Z,164.23
2022-11-27T21:19:16.179Z,163.73
2022-11-27T21:21:44.374Z,164.00
2022-11-27T21:24:14.238Z,163.20
2022-11-27T21:26:42.149Z,164.23
2022-11-27T21:29:10.721Z,164.13
2022-11-27T21:31:42.655Z,164.83
2022-11-27T21:34:14.550Z,163.90
2022-11-27T21:36:42.486Z,163.90
2022-11-27T21:39:13.221Z,164.37
2022-11-27T21:41:41.947Z,163.57
2022-11-27T21:44:10.539Z,164.07
2022-11-27T21:46:39.004Z,164.63
2022-11-27T21:49:07.776Z,163.97
2022-11-27T21:51:35.584Z,163.80
2022-11-27T21:54:07.589Z,164.50
2022-11-27T21:56:40.067Z,163.90
2022-11-27T21:59:09.222Z,164.97
2022-11-27T22:01:37.048Z,164.10
2022-11-27T22:04:05.379Z,164.73
2022-11-27T22:06:37.738Z,163.87
2022-11-27T22:09:10.521Z,163.80
2022-11-27T22:11:42.674Z,163.90
2022-11-27T22:14:10.957Z,163.53
2022-11-27T22:16:45.387Z,163.97
2022-11-27T22:19:15.058Z,164.63
2022-11-27T22:21:44.258Z,164.97
2022-11-27T22:24:18.238Z,164.47
2022-11-27T22:26:48.842Z,164.17
2022-11-27T22:29:16.788Z,164.67
2022-11-27T22:31:44.564Z,164.53
2022-11-27T22:34:12.403Z,163.60
2022-11-27T22:36:40.817Z,164.27
2022-11-27T22:39:09.543Z,164.23
2022-11-27T22:41:39.626Z,163.50
2022-11-27T22:44:10.545Z,164.17
2022-11-27T22:46:41.347Z,164.10
2022-11-27T22:49:10.899Z,164.37
2022-11-27T22:51:38.935Z,164.13
2022-11-27T22:54:08.001Z,163.53
2022-11-27T22:56:36.384Z,163.53
2022-11-27T22:59:34.495Z,163.77
2022-11-27T23:01:55.590Z,163.33
2022-11-27T23:04:23.474Z,163.90
2022-11-27T23:06:51.497Z,164.37
2022-11-27T23:09:19.379Z,163.67
2022-11-27T23:11:47.854Z,163.83
2022-11-27T23:14:15.747Z,163.70
2022-11-27T23:16:43.729Z,163.93
2022-11-27T23:19:13.216Z,164.67
2022-11-27T23:21:41.590Z,164.30
2022-11-27T23:24:12.467Z,164.23
2022-11-27T23:26:40.398Z,163.77
2022-11-27T23:29:08.215Z,164.73
2022-11-27T23:31:36.450Z,163.60
2022-11-27T23:34:07.164Z,163.90
2022-11-27T23:36:36.770Z,164.73
2022-11-27T23:39:06.851Z,163.97
2022-11-27T23:41:34.678Z,164.23
2022-11-27T23:44:02.521Z,164.90
2022-11-27T23:46:31.314Z,164.47
2022-11-27T23:49:00.537Z,163.83
2022-11-27T23:51:31.446Z,164.43
2022-11-27T23:54:01.452Z,163.70
2022-11-27T23:56:30.858Z,164.90
2022-11-27T23:58:59.467Z,164.57
